sensor_id;sensor_type;location;lat;lon;timestamp;temperature;humidity
21355;DHT22;10835;50.148;19.760;2023-12-14T00:01:26;22.40;44.10
21355;DHT22;10835;50.148;19.760;2023-12-14T00:03:56;22.20;43.70
21355;DHT22;10835;50.148;19.760;2023-12-14T00:06:24;22.30;43.70
21355;DHT22;10835;50.148;19.760;2023-12-14T00:08:53;22.30;43.60
21355;DHT22;10835;50.148;19.760;2023-12-14T00:11:21;22.50;43.40
21355;DHT22;10835;50.148;19.760;2023-12-14T00:13:49;22.50;43.20
21355;DHT22;10835;50.148;19.760;2023-12-14T00:16:18;22.60;43.20
21355;DHT22;10835;50.148;19.760;2023-12-14T00:18:46;22.30;43.30
21355;DHT22;10835;50.148;19.760;2023-12-14T00:21:16;22.40;43.50
21355;DHT22;10835;50.148;19.760;2023-12-14T00:23:45;22.40;43.30
21355;DHT22;10835;50.148;19.760;2023-12-14T00:26:13;22.30;43.40
21355;DHT22;10835;50.148;19.760;2023-12-14T00:28:42;22.30;43.60
21355;DHT22;10835;50.148;19.760;2023-12-14T00:31:10;22.30;43.70
21355;DHT22;10835;50.148;19.760;2023-12-14T00:33:39;22.20;43.80
21355;DHT22;10835;50.148;19.760;2023-12-14T00:36:08;22.20;43.70
21355;DHT22;10835;50.148;19.760;2023-12-14T00:38:38;22.10;44.00
21355;DHT22;10835;50.148;19.760;2023-12-14T00:41:06;22.00;44.00
21355;DHT22;10835;50.148;19.760;2023-12-14T00:43:35;21.90;44.20
21355;DHT22;10835;50.148;19.760;2023-12-14T00:46:05;21.80;44.10
21355;DHT22;10835;50.148;19.760;2023-12-14T00:48:33;21.70;44.50
21355;DHT22;10835;50.148;19.760;2023-12-14T00:51:02;21.80;44.50
21355;DHT22;10835;50.148;19.760;2023-12-14T00:53:30;21.90;44.20
21355;DHT22;10835;50.148;19.760;2023-12-14T00:56:00;21.80;44.30
21355;DHT22;10835;50.148;19.760;2023-12-14T00:58:29;22.10;44.00
21355;DHT22;10835;50.148;19.760;2023-12-14T01:00:57;22.10;43.90
21355;DHT22;10835;50.148;19.760;2023-12-14T01:03:26;22.00;43.90
21355;DHT22;10835;50.148;19.760;2023-12-14T01:05:54;22.20;43.90
21355;DHT22;10835;50.148;19.760;2023-12-14T01:08:23;22.30;43.70
21355;DHT22;10835;50.148;19.760;2023-12-14T01:10:51;22.40;43.60
21355;DHT22;10835;50.148;19.760;2023-12-14T01:13:21;22.40;43.30
21355;DHT22;10835;50.148;19.760;2023-12-14T01:15:49;22.40;43.30
21355;DHT22;10835;50.148;19.760;2023-12-14T01:18:18;22.50;43.20
21355;DHT22;10835;50.148;19.760;2023-12-14T01:20:46;22.50;42.90
21355;DHT22;10835;50.148;19.760;2023-12-14T01:23:14;22.60;43.00
21355;DHT22;10835;50.148;19.760;2023-12-14T01:25:42;22.60;42.90
21355;DHT22;10835;50.148;19.760;2023-12-14T01:28:11;22.60;42.80
21355;DHT22;10835;50.148;19.760;2023-12-14T01:30:42;22.40;42.90
21355;DHT22;10835;50.148;19.760;2023-12-14T01:33:11;22.50;43.00
21355;DHT22;10835;50.148;19.760;2023-12-14T01:35:39;22.50;42.90
21355;DHT22;10835;50.148;19.760;2023-12-14T01:38:08;22.50;43.10
21355;DHT22;10835;50.148;19.760;2023-12-14T01:40:36;22.60;42.90
21355;DHT22;10835;50.148;19.760;2023-12-14T01:43:08;22.40;43.20
21355;DHT22;10835;50.148;19.760;2023-12-14T01:45:37;22.60;43.30
21355;DHT22;10835;50.148;19.760;2023-12-14T01:48:07;22.30;43.10
21355;DHT22;10835;50.148;19.760;2023-12-14T01:50:35;22.50;43.20
21355;DHT22;10835;50.148;19.760;2023-12-14T01:53:04;22.60;43.10
21355;DHT22;10835;50.148;19.760;2023-12-14T01:55:32;22.60;42.90
21355;DHT22;10835;50.148;19.760;2023-12-14T01:58:01;22.60;43.10
21355;DHT22;10835;50.148;19.760;2023-12-14T02:00:36;22.60;42.90
21355;DHT22;10835;50.148;19.760;2023-12-14T02:03:08;22.60;43.10
21355;DHT22;10835;50.148;19.760;2023-12-14T02:05:37;22.40;43.20
21355;DHT22;10835;50.148;19.760;2023-12-14T02:08:05;22.50;43.20
21355;DHT22;10835;50.148;19.760;2023-12-14T02:10:34;21.80;43.10
21355;DHT22;10835;50.148;19.760;2023-12-14T02:13:03;21.90;44.20
21355;DHT22;10835;50.148;19.760;2023-12-14T02:15:31;21.90;44.40
21355;DHT22;10835;50.148;19.760;2023-12-14T02:18:00;21.60;44.80
21355;DHT22;10835;50.148;19.760;2023-12-14T02:20:30;22.00;44.40
21355;DHT22;10835;50.148;19.760;2023-12-14T02:22:59;22.00;44.40
21355;DHT22;10835;50.148;19.760;2023-12-14T02:25:29;21.60;44.30
21355;DHT22;10835;50.148;19.760;2023-12-14T02:27:57;20.90;45.00
21355;DHT22;10835;50.148;19.760;2023-12-14T02:30:25;20.80;45.20
21355;DHT22;10835;50.148;19.760;2023-12-14T02:32:54;20.80;46.20
21355;DHT22;10835;50.148;19.760;2023-12-14T02:35:22;21.40;45.60
21355;DHT22;10835;50.148;19.760;2023-12-14T02:37:51;21.70;45.00
21355;DHT22;10835;50.148;19.760;2023-12-14T02:40:21;21.20;44.70
21355;DHT22;10835;50.148;19.760;2023-12-14T02:42:49;21.20;45.40
21355;DHT22;10835;50.148;19.760;2023-12-14T02:45:18;21.20;45.10
21355;DHT22;10835;50.148;19.760;2023-12-14T02:47:46;20.30;46.10
21355;DHT22;10835;50.148;19.760;2023-12-14T02:50:16;20.20;46.90
21355;DHT22;10835;50.148;19.760;2023-12-14T02:52:45;20.80;46.50
21355;DHT22;10835;50.148;19.760;2023-12-14T02:55:13;21.10;46.10
21355;DHT22;10835;50.148;19.760;2023-12-14T02:57:43;21.50;45.60
21355;DHT22;10835;50.148;19.760;2023-12-14T03:00:13;21.80;44.90
21355;DHT22;10835;50.148;19.760;2023-12-14T03:02:42;22.00;44.50
21355;DHT22;10835;50.148;19.760;2023-12-14T03:05:10;22.00;44.20
21355;DHT22;10835;50.148;19.760;2023-12-14T03:07:39;22.20;44.10
21355;DHT22;10835;50.148;19.760;2023-12-14T03:10:08;22.40;44.00
21355;DHT22;10835;50.148;19.760;2023-12-14T03:12:37;22.40;43.50
21355;DHT22;10835;50.148;19.760;2023-12-14T03:15:07;22.40;43.60
21355;DHT22;10835;50.148;19.760;2023-12-14T03:17:36;22.40;43.70
21355;DHT22;10835;50.148;19.760;2023-12-14T03:20:05;22.40;43.40
21355;DHT22;10835;50.148;19.760;2023-12-14T03:22:34;22.30;43.50
21355;DHT22;10835;50.148;19.760;2023-12-14T03:25:04;22.30;43.50
21355;DHT22;10835;50.148;19.760;2023-12-14T03:27:32;22.40;43.70
21355;DHT22;10835;50.148;19.760;2023-12-14T03:30:01;22.30;43.60
21355;DHT22;10835;50.148;19.760;2023-12-14T03:32:32;22.20;43.70
21355;DHT22;10835;50.148;19.760;2023-12-14T03:35:01;22.30;43.70
21355;DHT22;10835;50.148;19.760;2023-12-14T03:37:29;22.30;43.70
21355;DHT22;10835;50.148;19.760;2023-12-14T03:39:58;22.30;43.60
21355;DHT22;10835;50.148;19.760;2023-12-14T03:42:26;22.30;43.60
21355;DHT22;10835;50.148;19.760;2023-12-14T03:44:54;22.50;43.50
21355;DHT22;10835;50.148;19.760;2023-12-14T03:47:23;22.50;43.30
21355;DHT22;10835;50.148;19.760;2023-12-14T03:49:53;22.70;43.20
21355;DHT22;10835;50.148;19.760;2023-12-14T03:52:21;22.60;43.00
21355;DHT22;10835;50.148;19.760;2023-12-14T03:54:49;22.50;43.20
21355;DHT22;10835;50.148;19.760;2023-12-14T03:57:18;22.20;43.40
21355;DHT22;10835;50.148;19.760;2023-12-14T03:59:46;22.00;44.00
21355;DHT22;10835;50.148;19.760;2023-12-14T04:02:14;21.90;44.40
21355;DHT22;10835;50.148;19.760;2023-12-14T04:04:43;21.80;44.40
21355;DHT22;10835;50.148;19.760;2023-12-14T04:07:15;22.10;44.50
21355;DHT22;10835;50.148;19.760;2023-12-14T04:09:44;22.20;44.00
21355;DHT22;10835;50.148;19.760;2023-12-14T04:12:12;22.30;43.70
21355;DHT22;10835;50.148;19.760;2023-12-14T04:14:41;22.40;43.70
21355;DHT22;10835;50.148;19.760;2023-12-14T04:17:09;22.50;43.50
21355;DHT22;10835;50.148;19.760;2023-12-14T04:19:38;22.40;43.50
21355;DHT22;10835;50.148;19.760;2023-12-14T04:22:07;22.50;43.70
21355;DHT22;10835;50.148;19.760;2023-12-14T04:24:36;22.50;43.50
21355;DHT22;10835;50.148;19.760;2023-12-14T04:27:05;22.30;43.60
21355;DHT22;10835;50.148;19.760;2023-12-14T04:29:33;22.40;43.70
21355;DHT22;10835;50.148;19.760;2023-12-14T04:32:02;22.10;44.00
21355;DHT22;10835;50.148;19.760;2023-12-14T04:34:30;21.80;44.50
21355;DHT22;10835;50.148;19.760;2023-12-14T04:36:59;22.00;45.20
21355;DHT22;10835;50.148;19.760;2023-12-14T04:39:27;22.10;44.40
21355;DHT22;10835;50.148;19.760;2023-12-14T04:41:57;22.10;44.30
21355;DHT22;10835;50.148;19.760;2023-12-14T04:44:26;22.30;43.90
21355;DHT22;10835;50.148;19.760;2023-12-14T04:46:54;22.50;43.70
21355;DHT22;10835;50.148;19.760;2023-12-14T04:49:22;22.40;43.60
21355;DHT22;10835;50.148;19.760;2023-12-14T04:51:51;22.40;43.80
21355;DHT22;10835;50.148;19.760;2023-12-14T04:54:19;22.50;43.60
21355;DHT22;10835;50.148;19.760;2023-12-14T04:56:48;22.50;43.50
21355;DHT22;10835;50.148;19.760;2023-12-14T04:59:18;22.60;43.40
21355;DHT22;10835;50.148;19.760;2023-12-14T05:01:46;22.70;43.30
21355;DHT22;10835;50.148;19.760;2023-12-14T05:04:15;22.80;43.30
21355;DHT22;10835;50.148;19.760;2023-12-14T05:06:43;22.90;43.10
21355;DHT22;10835;50.148;19.760;2023-12-14T05:09:12;22.90;42.90
21355;DHT22;10835;50.148;19.760;2023-12-14T05:11:40;22.90;42.80
21355;DHT22;10835;50.148;19.760;2023-12-14T05:14:09;22.90;42.80
21355;DHT22;10835;50.148;19.760;2023-12-14T05:16:39;22.80;43.00
21355;DHT22;10835;50.148;19.760;2023-12-14T05:19:07;22.90;43.00
21355;DHT22;10835;50.148;19.760;2023-12-14T05:21:36;22.90;42.70
21355;DHT22;10835;50.148;19.760;2023-12-14T05:24:05;23.00;42.70
21355;DHT22;10835;50.148;19.760;2023-12-14T05:26:33;23.00;42.60
21355;DHT22;10835;50.148;19.760;2023-12-14T05:29:02;23.00;42.90
21355;DHT22;10835;50.148;19.760;2023-12-14T05:31:30;22.90;42.90
21355;DHT22;10835;50.148;19.760;2023-12-14T05:34:00;22.60;43.30
21355;DHT22;10835;50.148;19.760;2023-12-14T05:36:29;21.60;43.50
21355;DHT22;10835;50.148;19.760;2023-12-14T05:38:58;21.30;45.10
21355;DHT22;10835;50.148;19.760;2023-12-14T05:41:26;21.30;45.60
21355;DHT22;10835;50.148;19.760;2023-12-14T05:43:55;21.60;45.50
21355;DHT22;10835;50.148;19.760;2023-12-14T05:46:23;21.80;45.20
21355;DHT22;10835;50.148;19.760;2023-12-14T05:48:52;22.10;44.70
21355;DHT22;10835;50.148;19.760;2023-12-14T05:51:29;22.00;44.30
21355;DHT22;10835;50.148;19.760;2023-12-14T05:53:58;22.10;44.30
21355;DHT22;10835;50.148;19.760;2023-12-14T05:56:26;22.20;44.00
21355;DHT22;10835;50.148;19.760;2023-12-14T05:58:54;22.20;44.00
21355;DHT22;10835;50.148;19.760;2023-12-14T06:01:23;22.20;44.00
21355;DHT22;10835;50.148;19.760;2023-12-14T06:03:52;22.20;43.90
21355;DHT22;10835;50.148;19.760;2023-12-14T06:06:21;22.30;44.00
21355;DHT22;10835;50.148;19.760;2023-12-14T06:08:50;22.30;43.70
21355;DHT22;10835;50.148;19.760;2023-12-14T06:11:19;22.20;43.70
21355;DHT22;10835;50.148;19.760;2023-12-14T06:13:48;21.50;44.00
21355;DHT22;10835;50.148;19.760;2023-12-14T06:16:16;21.90;44.50
21355;DHT22;10835;50.148;19.760;2023-12-14T06:18:45;21.50;44.40
21355;DHT22;10835;50.148;19.760;2023-12-14T06:21:14;21.70;44.70
21355;DHT22;10835;50.148;19.760;2023-12-14T06:23:42;21.90;44.20
21355;DHT22;10835;50.148;19.760;2023-12-14T06:26:12;22.10;44.00
21355;DHT22;10835;50.148;19.760;2023-12-14T06:28:41;22.10;44.10
21355;DHT22;10835;50.148;19.760;2023-12-14T06:31:12;22.10;44.00
21355;DHT22;10835;50.148;19.760;2023-12-14T06:33:41;21.90;43.80
21355;DHT22;10835;50.148;19.760;2023-12-14T06:36:10;22.10;44.00
21355;DHT22;10835;50.148;19.760;2023-12-14T06:38:39;22.30;43.70
21355;DHT22;10835;50.148;19.760;2023-12-14T06:41:07;22.40;43.60
21355;DHT22;10835;50.148;19.760;2023-12-14T06:43:39;22.20;43.40
21355;DHT22;10835;50.148;19.760;2023-12-14T06:46:08;22.30;43.70
21355;DHT22;10835;50.148;19.760;2023-12-14T06:48:36;22.40;43.40
21355;DHT22;10835;50.148;19.760;2023-12-14T06:51:05;22.10;43.70
21355;DHT22;10835;50.148;19.760;2023-12-14T06:53:34;22.00;44.00
21355;DHT22;10835;50.148;19.760;2023-12-14T06:56:04;21.90;44.20
21355;DHT22;10835;50.148;19.760;2023-12-14T06:58:39;22.00;44.30
21355;DHT22;10835;50.148;19.760;2023-12-14T07:01:07;21.80;44.40
21355;DHT22;10835;50.148;19.760;2023-12-14T07:03:36;21.90;44.60
21355;DHT22;10835;50.148;19.760;2023-12-14T07:06:07;22.10;44.30
21355;DHT22;10835;50.148;19.760;2023-12-14T07:08:39;22.20;43.90
21355;DHT22;10835;50.148;19.760;2023-12-14T07:11:08;22.20;43.70
21355;DHT22;10835;50.148;19.760;2023-12-14T07:13:39;22.30;43.70
21355;DHT22;10835;50.148;19.760;2023-12-14T07:16:09;22.30;43.60
21355;DHT22;10835;50.148;19.760;2023-12-14T07:18:40;22.40;43.60
21355;DHT22;10835;50.148;19.760;2023-12-14T07:21:09;22.50;43.50
21355;DHT22;10835;50.148;19.760;2023-12-14T07:23:38;22.50;43.40
21355;DHT22;10835;50.148;19.760;2023-12-14T07:26:06;22.20;43.70
21355;DHT22;10835;50.148;19.760;2023-12-14T07:28:35;22.40;43.70
21355;DHT22;10835;50.148;19.760;2023-12-14T07:31:05;22.40;43.60
21355;DHT22;10835;50.148;19.760;2023-12-14T07:33:33;22.20;43.70
21355;DHT22;10835;50.148;19.760;2023-12-14T07:36:03;22.10;44.10
21355;DHT22;10835;50.148;19.760;2023-12-14T07:38:32;21.40;44.40
21355;DHT22;10835;50.148;19.760;2023-12-14T07:41:01;21.10;45.10
21355;DHT22;10835;50.148;19.760;2023-12-14T07:43:30;21.40;45.10
21355;DHT22;10835;50.148;19.760;2023-12-14T07:45:58;21.50;44.90
21355;DHT22;10835;50.148;19.760;2023-12-14T07:48:28;21.40;45.20
21355;DHT22;10835;50.148;19.760;2023-12-14T07:50:57;21.50;45.10
21355;DHT22;10835;50.148;19.760;2023-12-14T07:53:25;21.60;45.00
21355;DHT22;10835;50.148;19.760;2023-12-14T07:55:54;21.50;44.90
21355;DHT22;10835;50.148;19.760;2023-12-14T07:58:22;20.90;45.70
21355;DHT22;10835;50.148;19.760;2023-12-14T08:00:53;21.00;45.80
21355;DHT22;10835;50.148;19.760;2023-12-14T08:03:21;21.30;45.70
21355;DHT22;10835;50.148;19.760;2023-12-14T08:05:51;21.70;45.50
21355;DHT22;10835;50.148;19.760;2023-12-14T08:08:19;21.90;45.00
21355;DHT22;10835;50.148;19.760;2023-12-14T08:10:48;22.10;44.70
21355;DHT22;10835;50.148;19.760;2023-12-14T08:13:16;22.20;44.40
21355;DHT22;10835;50.148;19.760;2023-12-14T08:15:45;22.20;44.20
21355;DHT22;10835;50.148;19.760;2023-12-14T08:18:14;22.00;44.20
21355;DHT22;10835;50.148;19.760;2023-12-14T08:20:42;22.20;43.60
21355;DHT22;10835;50.148;19.760;2023-12-14T08:23:12;22.30;43.60
21355;DHT22;10835;50.148;19.760;2023-12-14T08:25:41;22.50;43.60
21355;DHT22;10835;50.148;19.760;2023-12-14T08:28:09;22.60;43.30
21355;DHT22;10835;50.148;19.760;2023-12-14T08:30:40;22.60;43.30
21355;DHT22;10835;50.148;19.760;2023-12-14T08:33:09;22.50;43.10
21355;DHT22;10835;50.148;19.760;2023-12-14T08:35:37;22.50;43.60
21355;DHT22;10835;50.148;19.760;2023-12-14T08:38:06;22.00;43.60
21355;DHT22;10835;50.148;19.760;2023-12-14T08:40:36;22.20;44.00
21355;DHT22;10835;50.148;19.760;2023-12-14T08:43:04;22.30;43.70
21355;DHT22;10835;50.148;19.760;2023-12-14T08:45:33;22.50;43.60
21355;DHT22;10835;50.148;19.760;2023-12-14T08:48:02;22.70;43.10
21355;DHT22;10835;50.148;19.760;2023-12-14T08:50:31;22.70;43.00
21355;DHT22;10835;50.148;19.760;2023-12-14T08:52:59;22.80;42.90
21355;DHT22;10835;50.148;19.760;2023-12-14T08:55:28;22.80;42.80
21355;DHT22;10835;50.148;19.760;2023-12-14T08:57:58;22.80;43.00
21355;DHT22;10835;50.148;19.760;2023-12-14T09:00:26;22.80;43.00
21355;DHT22;10835;50.148;19.760;2023-12-14T09:02:55;22.80;42.90
21355;DHT22;10835;50.148;19.760;2023-12-14T09:05:24;22.80;43.00
21355;DHT22;10835;50.148;19.760;2023-12-14T09:07:54;23.00;42.70
21355;DHT22;10835;50.148;19.760;2023-12-14T09:10:24;22.70;42.90
21355;DHT22;10835;50.148;19.760;2023-12-14T09:12:52;22.50;43.50
21355;DHT22;10835;50.148;19.760;2023-12-14T09:15:22;22.70;43.50
21355;DHT22;10835;50.148;19.760;2023-12-14T09:17:50;22.50;43.30
21355;DHT22;10835;50.148;19.760;2023-12-14T09:20:19;22.70;42.90
21355;DHT22;10835;50.148;19.760;2023-12-14T09:22:47;22.70;43.50
21355;DHT22;10835;50.148;19.760;2023-12-14T09:25:16;22.50;43.30
21355;DHT22;10835;50.148;19.760;2023-12-14T09:27:45;22.40;43.70
21355;DHT22;10835;50.148;19.760;2023-12-14T09:30:14;22.60;43.80
21355;DHT22;10835;50.148;19.760;2023-12-14T09:32:45;22.60;43.60
21355;DHT22;10835;50.148;19.760;2023-12-14T09:35:14;22.40;43.40
21355;DHT22;10835;50.148;19.760;2023-12-14T09:37:43;22.50;43.20
21355;DHT22;10835;50.148;19.760;2023-12-14T09:40:11;22.30;43.40
21355;DHT22;10835;50.148;19.760;2023-12-14T09:42:40;22.50;43.40
21355;DHT22;10835;50.148;19.760;2023-12-14T09:45:11;22.40;43.70
21355;DHT22;10835;50.148;19.760;2023-12-14T09:47:40;22.50;43.90
21355;DHT22;10835;50.148;19.760;2023-12-14T09:50:12;22.60;43.30
21355;DHT22;10835;50.148;19.760;2023-12-14T09:52:42;22.40;44.10
21355;DHT22;10835;50.148;19.760;2023-12-14T09:55:13;22.30;43.90
21355;DHT22;10835;50.148;19.760;2023-12-14T09:57:41;22.30;43.70
21355;DHT22;10835;50.148;19.760;2023-12-14T10:00:10;22.50;43.70
21355;DHT22;10835;50.148;19.760;2023-12-14T10:02:41;22.60;43.60
21355;DHT22;10835;50.148;19.760;2023-12-14T10:05:11;22.70;43.60
21355;DHT22;10835;50.148;19.760;2023-12-14T10:07:41;22.70;43.40
21355;DHT22;10835;50.148;19.760;2023-12-14T10:10:12;22.80;43.50
21355;DHT22;10835;50.148;19.760;2023-12-14T10:12:51;22.80;43.50
21355;DHT22;10835;50.148;19.760;2023-12-14T10:15:20;22.30;44.00
21355;DHT22;10835;50.148;19.760;2023-12-14T10:17:51;22.00;44.50
21355;DHT22;10835;50.148;19.760;2023-12-14T10:20:23;21.90;44.60
21355;DHT22;10835;50.148;19.760;2023-12-14T10:22:53;22.00;44.50
21355;DHT22;10835;50.148;19.760;2023-12-14T10:25:23;21.90;44.60
21355;DHT22;10835;50.148;19.760;2023-12-14T10:27:51;21.00;44.90
21355;DHT22;10835;50.148;19.760;2023-12-14T10:30:21;20.60;46.50
21355;DHT22;10835;50.148;19.760;2023-12-14T10:32:50;20.40;46.40
21355;DHT22;10835;50.148;19.760;2023-12-14T10:35:18;20.30;47.20
21355;DHT22;10835;50.148;19.760;2023-12-14T10:37:51;20.60;47.40
21355;DHT22;10835;50.148;19.760;2023-12-14T10:40:21;20.70;47.20
21355;DHT22;10835;50.148;19.760;2023-12-14T10:42:51;21.10;46.90
21355;DHT22;10835;50.148;19.760;2023-12-14T10:45:22;21.50;46.20
21355;DHT22;10835;50.148;19.760;2023-12-14T10:47:55;21.70;45.70
21355;DHT22;10835;50.148;19.760;2023-12-14T10:50:28;22.10;45.10
21355;DHT22;10835;50.148;19.760;2023-12-14T10:52:59;22.40;45.00
21355;DHT22;10835;50.148;19.760;2023-12-14T10:55:33;22.50;44.50
21355;DHT22;10835;50.148;19.760;2023-12-14T10:58:03;22.60;44.20
21355;DHT22;10835;50.148;19.760;2023-12-14T11:00:32;22.30;44.10
21355;DHT22;10835;50.148;19.760;2023-12-14T11:03:00;21.70;44.60
21355;DHT22;10835;50.148;19.760;2023-12-14T11:05:29;21.70;45.20
21355;DHT22;10835;50.148;19.760;2023-12-14T11:08:02;21.80;45.30
21355;DHT22;10835;50.148;19.760;2023-12-14T11:10:37;21.60;45.20
21355;DHT22;10835;50.148;19.760;2023-12-14T11:13:07;21.40;45.80
21355;DHT22;10835;50.148;19.760;2023-12-14T11:15:39;21.80;45.70
21355;DHT22;10835;50.148;19.760;2023-12-14T11:18:24;21.80;45.70
21355;DHT22;10835;50.148;19.760;2023-12-14T11:20:55;21.30;45.40
21355;DHT22;10835;50.148;19.760;2023-12-14T11:23:33;21.50;46.10
21355;DHT22;10835;50.148;19.760;2023-12-14T11:26:04;21.30;46.40
21355;DHT22;10835;50.148;19.760;2023-12-14T11:28:35;21.50;46.00
21355;DHT22;10835;50.148;19.760;2023-12-14T11:31:04;21.00;45.30
21355;DHT22;10835;50.148;19.760;2023-12-14T11:33:35;21.10;46.90
21355;DHT22;10835;50.148;19.760;2023-12-14T11:36:11;21.50;46.10
21355;DHT22;10835;50.148;19.760;2023-12-14T11:38:42;21.70;46.10
21355;DHT22;10835;50.148;19.760;2023-12-14T11:41:11;21.30;45.70
21355;DHT22;10835;50.148;19.760;2023-12-14T11:43:41;21.60;46.20
21355;DHT22;10835;50.148;19.760;2023-12-14T11:46:10;21.40;46.30
21355;DHT22;10835;50.148;19.760;2023-12-14T11:48:39;21.50;45.60
21355;DHT22;10835;50.148;19.760;2023-12-14T11:51:08;21.70;46.50
21355;DHT22;10835;50.148;19.760;2023-12-14T11:53:38;21.80;46.10
21355;DHT22;10835;50.148;19.760;2023-12-14T11:56:09;21.40;46.10
21355;DHT22;10835;50.148;19.760;2023-12-14T11:58:40;21.80;46.40
21355;DHT22;10835;50.148;19.760;2023-12-14T12:01:13;21.90;46.10
21355;DHT22;10835;50.148;19.760;2023-12-14T12:03:44;21.60;46.30
21355;DHT22;10835;50.148;19.760;2023-12-14T12:06:22;21.80;46.30
21355;DHT22;10835;50.148;19.760;2023-12-14T12:08:51;21.90;45.80
21355;DHT22;10835;50.148;19.760;2023-12-14T12:11:22;21.90;45.90
21355;DHT22;10835;50.148;19.760;2023-12-14T12:13:52;21.50;45.20
21355;DHT22;10835;50.148;19.760;2023-12-14T12:16:22;21.00;46.10
21355;DHT22;10835;50.148;19.760;2023-12-14T12:18:51;21.50;46.30
21355;DHT22;10835;50.148;19.760;2023-12-14T12:21:20;21.70;45.90
21355;DHT22;10835;50.148;19.760;2023-12-14T12:23:48;21.50;46.10
21355;DHT22;10835;50.148;19.760;2023-12-14T12:26:17;20.90;46.20
21355;DHT22;10835;50.148;19.760;2023-12-14T12:28:47;21.30;46.10
21355;DHT22;10835;50.148;19.760;2023-12-14T12:31:16;20.80;46.50
21355;DHT22;10835;50.148;19.760;2023-12-14T12:33:45;20.70;46.60
21355;DHT22;10835;50.148;19.760;2023-12-14T12:36:13;20.50;47.00
21355;DHT22;10835;50.148;19.760;2023-12-14T12:38:42;20.30;47.70
21355;DHT22;10835;50.148;19.760;2023-12-14T12:41:10;20.30;47.40
21355;DHT22;10835;50.148;19.760;2023-12-14T12:43:39;20.20;47.70
21355;DHT22;10835;50.148;19.760;2023-12-14T12:46:09;20.00;48.00
21355;DHT22;10835;50.148;19.760;2023-12-14T12:48:37;20.20;48.00
21355;DHT22;10835;50.148;19.760;2023-12-14T12:51:07;20.50;48.20
21355;DHT22;10835;50.148;19.760;2023-12-14T12:53:35;20.80;47.60
21355;DHT22;10835;50.148;19.760;2023-12-14T12:56:04;20.20;47.70
21355;DHT22;10835;50.148;19.760;2023-12-14T12:58:33;19.60;48.30
21355;DHT22;10835;50.148;19.760;2023-12-14T13:01:01;19.70;48.80
21355;DHT22;10835;50.148;19.760;2023-12-14T13:03:31;19.70;49.10
21355;DHT22;10835;50.148;19.760;2023-12-14T13:05:59;20.20;49.10
21355;DHT22;10835;50.148;19.760;2023-12-14T13:08:28;20.20;48.60
21355;DHT22;10835;50.148;19.760;2023-12-14T13:10:58;20.60;47.80
21355;DHT22;10835;50.148;19.760;2023-12-14T13:13:27;20.60;48.80
21355;DHT22;10835;50.148;19.760;2023-12-14T13:15:55;21.10;48.10
21355;DHT22;10835;50.148;19.760;2023-12-14T13:18:24;21.30;46.80
21355;DHT22;10835;50.148;19.760;2023-12-14T13:20:54;20.90;47.00
21355;DHT22;10835;50.148;19.760;2023-12-14T13:23:22;20.90;47.40
21355;DHT22;10835;50.148;19.760;2023-12-14T13:25:51;20.60;47.40
21355;DHT22;10835;50.148;19.760;2023-12-14T13:28:19;20.60;48.00
21355;DHT22;10835;50.148;19.760;2023-12-14T13:30:47;20.10;48.50
21355;DHT22;10835;50.148;19.760;2023-12-14T13:33:16;19.60;48.90
21355;DHT22;10835;50.148;19.760;2023-12-14T13:35:45;19.90;49.50
21355;DHT22;10835;50.148;19.760;2023-12-14T13:38:15;19.60;49.30
21355;DHT22;10835;50.148;19.760;2023-12-14T13:40:43;19.70;49.80
21355;DHT22;10835;50.148;19.760;2023-12-14T13:43:12;20.00;49.30
21355;DHT22;10835;50.148;19.760;2023-12-14T13:45:42;19.80;48.90
21355;DHT22;10835;50.148;19.760;2023-12-14T13:48:11;20.00;49.30
21355;DHT22;10835;50.148;19.760;2023-12-14T13:50:39;19.90;48.80
21355;DHT22;10835;50.148;19.760;2023-12-14T13:53:08;20.40;49.00
21355;DHT22;10835;50.148;19.760;2023-12-14T13:55:38;20.40;48.30
21355;DHT22;10835;50.148;19.760;2023-12-14T13:58:06;20.70;48.00
21355;DHT22;10835;50.148;19.760;2023-12-14T14:00:35;20.60;47.70
21355;DHT22;10835;50.148;19.760;2023-12-14T14:03:04;20.60;47.40
21355;DHT22;10835;50.148;19.760;2023-12-14T14:05:33;20.60;47.50
21355;DHT22;10835;50.148;19.760;2023-12-14T14:08:02;19.90;47.80
21355;DHT22;10835;50.148;19.760;2023-12-14T14:10:33;19.80;49.00
21355;DHT22;10835;50.148;19.760;2023-12-14T14:13:03;19.60;48.80
21355;DHT22;10835;50.148;19.760;2023-12-14T14:15:32;19.00;49.40
21355;DHT22;10835;50.148;19.760;2023-12-14T14:18:00;18.60;51.00
21355;DHT22;10835;50.148;19.760;2023-12-14T14:20:29;18.50;52.00
21355;DHT22;10835;50.148;19.760;2023-12-14T14:22:58;19.00;51.20
21355;DHT22;10835;50.148;19.760;2023-12-14T14:25:27;19.50;50.50
21355;DHT22;10835;50.148;19.760;2023-12-14T14:27:55;20.10;49.70
21355;DHT22;10835;50.148;19.760;2023-12-14T14:30:26;20.30;48.90
21355;DHT22;10835;50.148;19.760;2023-12-14T14:32:54;20.90;48.30
21355;DHT22;10835;50.148;19.760;2023-12-14T14:35:23;19.60;48.40
21355;DHT22;10835;50.148;19.760;2023-12-14T14:37:52;19.20;49.40
21355;DHT22;10835;50.148;19.760;2023-12-14T14:40:20;19.40;49.90
21355;DHT22;10835;50.148;19.760;2023-12-14T14:42:49;19.90;50.00
21355;DHT22;10835;50.148;19.760;2023-12-14T14:45:18;19.80;49.80
21355;DHT22;10835;50.148;19.760;2023-12-14T14:47:47;19.40;49.30
21355;DHT22;10835;50.148;19.760;2023-12-14T14:50:16;19.80;50.30
21355;DHT22;10835;50.148;19.760;2023-12-14T14:52:45;20.30;49.60
21355;DHT22;10835;50.148;19.760;2023-12-14T14:55:13;20.30;48.80
21355;DHT22;10835;50.148;19.760;2023-12-14T14:57:41;20.70;48.50
21355;DHT22;10835;50.148;19.760;2023-12-14T15:00:10;21.10;47.80
21355;DHT22;10835;50.148;19.760;2023-12-14T15:02:39;21.20;47.60
21355;DHT22;10835;50.148;19.760;2023-12-14T15:05:09;21.30;47.20
21355;DHT22;10835;50.148;19.760;2023-12-14T15:07:38;21.30;47.20
21355;DHT22;10835;50.148;19.760;2023-12-14T15:10:08;21.00;47.20
21355;DHT22;10835;50.148;19.760;2023-12-14T15:12:36;21.10;47.40
21355;DHT22;10835;50.148;19.760;2023-12-14T15:15:05;20.60;47.60
21355;DHT22;10835;50.148;19.760;2023-12-14T15:17:37;20.30;48.10
21355;DHT22;10835;50.148;19.760;2023-12-14T15:20:06;19.70;48.80
21355;DHT22;10835;50.148;19.760;2023-12-14T15:22:36;19.60;49.50
21355;DHT22;10835;50.148;19.760;2023-12-14T15:25:05;19.40;50.00
21355;DHT22;10835;50.148;19.760;2023-12-14T15:27:34;19.40;49.90